sensor_id;sensor_type;location;lat;lon;timestamp;temperature;humidity
13697;DHT22;6920;50.080;8.226;2022-12-10T00:01:20;2.10;99.90
13697;DHT22;6920;50.080;8.226;2022-12-10T00:03:47;2.10;99.90
13697;DHT22;6920;50.080;8.226;2022-12-10T00:06:19;2.10;99.90
13697;DHT22;6920;50.080;8.226;2022-12-10T00:08:47;2.00;99.90
13697;DHT22;6920;50.080;8.226;2022-12-10T00:13:46;2.00;99.90
13697;DHT22;6920;50.080;8.226;2022-12-10T00:21:12;1.80;99.90
13697;DHT22;6920;50.080;8.226;2022-12-10T00:31:12;1.80;99.90
13697;DHT22;6920;50.080;8.226;2022-12-10T00:33:40;1.70;99.90
13697;DHT22;6920;50.080;8.226;2022-12-10T00:36:10;1.70;99.90
13697;DHT22;6920;50.080;8.226;2022-12-10T00:38:39;1.60;99.90
13697;DHT22;6920;50.080;8.226;2022-12-10T00:41:07;1.70;99.90
13697;DHT22;6920;50.080;8.226;2022-12-10T00:43:36;1.70;99.90
13697;DHT22;6920;50.080;8.226;2022-12-10T00:46:05;1.70;99.90
13697;DHT22;6920;50.080;8.226;2022-12-10T00:48:34;1.70;99.90
13697;DHT22;6920;50.080;8.226;2022-12-10T00:51:04;1.60;99.90
13697;DHT22;6920;50.080;8.226;2022-12-10T00:53:33;1.70;99.90
13697;DHT22;6920;50.080;8.226;2022-12-10T00:56:02;1.70;99.90
13697;DHT22;6920;50.080;8.226;2022-12-10T00:58:33;1.80;99.90
13697;DHT22;6920;50.080;8.226;2022-12-10T01:01:09;1.90;99.90
13697;DHT22;6920;50.080;8.226;2022-12-10T01:03:39;1.90;99.90
13697;DHT22;6920;50.080;8.226;2022-12-10T01:06:12;1.90;99.90
13697;DHT22;6920;50.080;8.226;2022-12-10T01:08:41;1.80;99.90
13697;DHT22;6920;50.080;8.226;2022-12-10T01:11:10;1.80;99.90
13697;DHT22;6920;50.080;8.226;2022-12-10T01:13:40;1.60;99.90
13697;DHT22;6920;50.080;8.226;2022-12-10T01:16:14;1.70;99.90
13697;DHT22;6920;50.080;8.226;2022-12-10T01:18:43;1.70;99.90
13697;DHT22;6920;50.080;8.226;2022-12-10T01:21:13;1.70;99.90
13697;DHT22;6920;50.080;8.226;2022-12-10T01:23:41;1.60;99.90
13697;DHT22;6920;50.080;8.226;2022-12-10T01:26:13;1.60;99.90
13697;DHT22;6920;50.080;8.226;2022-12-10T01:28:44;1.60;99.90
13697;DHT22;6920;50.080;8.226;2022-12-10T01:31:15;1.60;99.90
13697;DHT22;6920;50.080;8.226;2022-12-10T01:33:46;1.60;99.90
13697;DHT22;6920;50.080;8.226;2022-12-10T01:36:16;1.60;99.90
13697;DHT22;6920;50.080;8.226;2022-12-10T01:38:43;1.50;99.90
13697;DHT22;6920;50.080;8.226;2022-12-10T01:41:15;1.40;99.90
13697;DHT22;6920;50.080;8.226;2022-12-10T01:44:02;1.50;99.90
13697;DHT22;6920;50.080;8.226;2022-12-10T01:46:37;1.50;99.90
13697;DHT22;6920;50.080;8.226;2022-12-10T01:49:15;1.50;99.90
13697;DHT22;6920;50.080;8.226;2022-12-10T01:51:46;1.50;99.90
13697;DHT22;6920;50.080;8.226;2022-12-10T01:54:18;1.50;99.90
13697;DHT22;6920;50.080;8.226;2022-12-10T01:56:48;1.60;99.90
13697;DHT22;6920;50.080;8.226;2022-12-10T02:01:54;1.40;99.90
13697;DHT22;6920;50.080;8.226;2022-12-10T02:04:31;1.50;99.90
13697;DHT22;6920;50.080;8.226;2022-12-10T02:07:05;1.50;99.90
13697;DHT22;6920;50.080;8.226;2022-12-10T02:09:38;1.50;99.90
13697;DHT22;6920;50.080;8.226;2022-12-10T02:12:10;1.40;99.90
13697;DHT22;6920;50.080;8.226;2022-12-10T02:14:44;1.40;99.90
13697;DHT22;6920;50.080;8.226;2022-12-10T02:17:31;1.40;99.90
13697;DHT22;6920;50.080;8.226;2022-12-10T02:20:07;1.40;99.90
13697;DHT22;6920;50.080;8.226;2022-12-10T02:22:38;1.40;99.90
13697;DHT22;6920;50.080;8.226;2022-12-10T02:25:08;1.40;99.90
13697;DHT22;6920;50.080;8.226;2022-12-10T02:27:44;1.30;99.90
13697;DHT22;6920;50.080;8.226;2022-12-10T02:30:14;1.30;99.90
13697;DHT22;6920;50.080;8.226;2022-12-10T02:35:19;1.20;99.90
13697;DHT22;6920;50.080;8.226;2022-12-10T02:37:50;1.10;99.90
13697;DHT22;6920;50.080;8.226;2022-12-10T02:40:23;1.20;99.90
13697;DHT22;6920;50.080;8.226;2022-12-10T02:42:56;1.20;99.90
13697;DHT22;6920;50.080;8.226;2022-12-10T02:45:27;1.10;99.90
13697;DHT22;6920;50.080;8.226;2022-12-10T02:47:58;1.10;99.90
13697;DHT22;6920;50.080;8.226;2022-12-10T02:50:26;1.00;99.90
13697;DHT22;6920;50.080;8.226;2022-12-10T02:52:54;1.00;99.90
13697;DHT22;6920;50.080;8.226;2022-12-10T02:55:22;0.90;99.90
13697;DHT22;6920;50.080;8.226;2022-12-10T02:58:05;0.90;99.90
13697;DHT22;6920;50.080;8.226;2022-12-10T03:00:39;0.90;99.90
13697;DHT22;6920;50.080;8.226;2022-12-10T03:03:34;0.90;99.90
13697;DHT22;6920;50.080;8.226;2022-12-10T03:06:12;0.90;99.90
13697;DHT22;6920;50.080;8.226;2022-12-10T03:08:46;0.80;99.90
13697;DHT22;6920;50.080;8.226;2022-12-10T03:11:18;4.10;99.90
13697;DHT22;6920;50.080;8.226;2022-12-10T03:13:51;0.80;99.90
13697;DHT22;6920;50.080;8.226;2022-12-10T03:16:23;0.80;99.90
13697;DHT22;6920;50.080;8.226;2022-12-10T03:18:58;0.70;99.90
13697;DHT22;6920;50.080;8.226;2022-12-10T03:21:30;0.70;99.90
13697;DHT22;6920;50.080;8.226;2022-12-10T03:24:02;0.70;99.90
13697;DHT22;6920;50.080;8.226;2022-12-10T03:26:31;0.70;99.90
13697;DHT22;6920;50.080;8.226;2022-12-10T03:29:08;0.80;99.90
13697;DHT22;6920;50.080;8.226;2022-12-10T03:31:42;0.80;99.90
13697;DHT22;6920;50.080;8.226;2022-12-10T03:34:11;0.80;99.90
13697;DHT22;6920;50.080;8.226;2022-12-10T03:36:41;0.80;99.90
13697;DHT22;6920;50.080;8.226;2022-12-10T03:39:10;0.80;99.90
13697;DHT22;6920;50.080;8.226;2022-12-10T03:41:41;0.70;99.90
13697;DHT22;6920;50.080;8.226;2022-12-10T03:44:10;0.80;99.90
13697;DHT22;6920;50.080;8.226;2022-12-10T03:46:38;0.70;99.90
13697;DHT22;6920;50.080;8.226;2022-12-10T03:49:09;0.70;99.90
13697;DHT22;6920;50.080;8.226;2022-12-10T03:51:36;0.70;99.90
13697;DHT22;6920;50.080;8.226;2022-12-10T03:54:04;0.70;99.90
13697;DHT22;6920;50.080;8.226;2022-12-10T03:56:32;0.60;99.90
13697;DHT22;6920;50.080;8.226;2022-12-10T03:58:59;0.70;99.90
13697;DHT22;6920;50.080;8.226;2022-12-10T04:01:29;0.70;99.90
13697;DHT22;6920;50.080;8.226;2022-12-10T04:03:56;0.70;99.90
13697;DHT22;6920;50.080;8.226;2022-12-10T04:06:25;0.70;99.90
13697;DHT22;6920;50.080;8.226;2022-12-10T04:08:55;0.60;99.90
13697;DHT22;6920;50.080;8.226;2022-12-10T04:11:23;0.60;99.90
13697;DHT22;6920;50.080;8.226;2022-12-10T04:13:51;0.60;99.90
13697;DHT22;6920;50.080;8.226;2022-12-10T04:16:37;0.70;99.90
13697;DHT22;6920;50.080;8.226;2022-12-10T04:19:05;0.80;99.90
13697;DHT22;6920;50.080;8.226;2022-12-10T04:21:37;0.70;99.90
13697;DHT22;6920;50.080;8.226;2022-12-10T04:24:24;0.70;99.90
13697;DHT22;6920;50.080;8.226;2022-12-10T04:27:11;0.80;99.90
13697;DHT22;6920;50.080;8.226;2022-12-10T04:29:40;0.70;99.90
13697;DHT22;6920;50.080;8.226;2022-12-10T04:32:09;0.70;99.90
13697;DHT22;6920;50.080;8.226;2022-12-10T04:34:38;0.70;99.90
13697;DHT22;6920;50.080;8.226;2022-12-10T04:37:09;0.70;99.90
13697;DHT22;6920;50.080;8.226;2022-12-10T04:39:37;0.70;99.90
13697;DHT22;6920;50.080;8.226;2022-12-10T04:42:05;0.70;99.90
13697;DHT22;6920;50.080;8.226;2022-12-10T04:44:33;0.80;99.90
13697;DHT22;6920;50.080;8.226;2022-12-10T04:47:00;0.70;99.90
13697;DHT22;6920;50.080;8.226;2022-12-10T04:49:29;0.70;99.90
13697;DHT22;6920;50.080;8.226;2022-12-10T04:51:57;0.80;99.90
13697;DHT22;6920;50.080;8.226;2022-12-10T04:54:28;0.80;99.90
13697;DHT22;6920;50.080;8.226;2022-12-10T04:56:56;0.80;99.90
13697;DHT22;6920;50.080;8.226;2022-12-10T04:59:26;0.70;99.90
13697;DHT22;6920;50.080;8.226;2022-12-10T05:01:55;0.70;99.90
13697;DHT22;6920;50.080;8.226;2022-12-10T05:04:22;0.70;99.90
13697;DHT22;6920;50.080;8.226;2022-12-10T05:06:49;0.70;99.90
13697;DHT22;6920;50.080;8.226;2022-12-10T05:09:17;0.70;99.90
13697;DHT22;6920;50.080;8.226;2022-12-10T05:11:45;0.70;99.90
13697;DHT22;6920;50.080;8.226;2022-12-10T05:14:16;0.70;99.90
13697;DHT22;6920;50.080;8.226;2022-12-10T05:16:44;0.60;99.90
13697;DHT22;6920;50.080;8.226;2022-12-10T05:19:11;0.60;99.90
13697;DHT22;6920;50.080;8.226;2022-12-10T05:21:39;0.70;99.90
13697;DHT22;6920;50.080;8.226;2022-12-10T05:24:25;0.60;99.90
13697;DHT22;6920;50.080;8.226;2022-12-10T05:26:55;0.60;99.90
13697;DHT22;6920;50.080;8.226;2022-12-10T05:29:24;0.70;99.90
13697;DHT22;6920;50.080;8.226;2022-12-10T05:31:51;0.60;99.90
13697;DHT22;6920;50.080;8.226;2022-12-10T05:34:21;0.70;99.90
13697;DHT22;6920;50.080;8.226;2022-12-10T05:36:48;0.60;99.90
13697;DHT22;6920;50.080;8.226;2022-12-10T05:39:17;0.70;99.90
13697;DHT22;6920;50.080;8.226;2022-12-10T05:41:44;0.60;99.90
13697;DHT22;6920;50.080;8.226;2022-12-10T05:44:15;0.70;99.90
13697;DHT22;6920;50.080;8.226;2022-12-10T05:46:42;0.60;99.90
13697;DHT22;6920;50.080;8.226;2022-12-10T05:49:23;0.60;99.90
13697;DHT22;6920;50.080;8.226;2022-12-10T05:51:54;0.60;99.90
13697;DHT22;6920;50.080;8.226;2022-12-10T05:54:22;0.50;99.90
13697;DHT22;6920;50.080;8.226;2022-12-10T05:56:51;0.50;99.90
13697;DHT22;6920;50.080;8.226;2022-12-10T05:59:21;0.60;99.90
13697;DHT22;6920;50.080;8.226;2022-12-10T06:01:51;0.50;99.90
13697;DHT22;6920;50.080;8.226;2022-12-10T06:04:19;0.50;99.90
13697;DHT22;6920;50.080;8.226;2022-12-10T06:06:46;0.40;99.90
13697;DHT22;6920;50.080;8.226;2022-12-10T06:09:16;0.40;99.90
13697;DHT22;6920;50.080;8.226;2022-12-10T06:11:45;0.40;99.90
13697;DHT22;6920;50.080;8.226;2022-12-10T06:14:13;0.60;99.90
13697;DHT22;6920;50.080;8.226;2022-12-10T06:16:42;0.60;99.90
13697;DHT22;6920;50.080;8.226;2022-12-10T06:19:09;0.60;99.90
13697;DHT22;6920;50.080;8.226;2022-12-10T06:21:37;0.50;99.90
13697;DHT22;6920;50.080;8.226;2022-12-10T06:24:07;0.50;99.90
13697;DHT22;6920;50.080;8.226;2022-12-10T06:26:36;0.50;99.90
13697;DHT22;6920;50.080;8.226;2022-12-10T06:29:04;0.50;99.90
13697;DHT22;6920;50.080;8.226;2022-12-10T06:31:33;0.50;99.90
13697;DHT22;6920;50.080;8.226;2022-12-10T06:34:09;0.50;99.90
13697;DHT22;6920;50.080;8.226;2022-12-10T06:36:38;0.60;99.90
13697;DHT22;6920;50.080;8.226;2022-12-10T06:39:05;0.50;99.90
13697;DHT22;6920;50.080;8.226;2022-12-10T06:41:33;0.60;99.90
13697;DHT22;6920;50.080;8.226;2022-12-10T06:44:08;0.60;99.90
13697;DHT22;6920;50.080;8.226;2022-12-10T06:46:42;0.60;99.90
13697;DHT22;6920;50.080;8.226;2022-12-10T06:49:12;0.60;99.90
13697;DHT22;6920;50.080;8.226;2022-12-10T06:51:40;1.30;99.90
13697;DHT22;6920;50.080;8.226;2022-12-10T06:54:21;0.70;99.90
13697;DHT22;6920;50.080;8.226;2022-12-10T06:56:48;0.70;99.90
13697;DHT22;6920;50.080;8.226;2022-12-10T06:59:17;0.60;99.90
13697;DHT22;6920;50.080;8.226;2022-12-10T07:01:47;0.70;99.90
13697;DHT22;6920;50.080;8.226;2022-12-10T07:04:17;0.70;99.90
13697;DHT22;6920;50.080;8.226;2022-12-10T07:06:44;0.70;99.90
13697;DHT22;6920;50.080;8.226;2022-12-10T07:09:11;0.70;99.90
13697;DHT22;6920;50.080;8.226;2022-12-10T07:11:40;0.80;99.90
13697;DHT22;6920;50.080;8.226;2022-12-10T07:14:07;0.80;99.90
13697;DHT22;6920;50.080;8.226;2022-12-10T07:16:35;0.80;99.90
13697;DHT22;6920;50.080;8.226;2022-12-10T07:19:08;0.90;99.90
13697;DHT22;6920;50.080;8.226;2022-12-10T07:21:40;0.90;99.90
13697;DHT22;6920;50.080;8.226;2022-12-10T07:24:10;1.00;99.90
13697;DHT22;6920;50.080;8.226;2022-12-10T07:26:39;1.10;99.90
13697;DHT22;6920;50.080;8.226;2022-12-10T07:29:12;1.10;99.90
13697;DHT22;6920;50.080;8.226;2022-12-10T07:31:39;1.10;99.90
13697;DHT22;6920;50.080;8.226;2022-12-10T07:34:12;1.20;99.90
13697;DHT22;6920;50.080;8.226;2022-12-10T07:36:46;1.20;99.90
13697;DHT22;6920;50.080;8.226;2022-12-10T07:39:13;1.20;99.90
13697;DHT22;6920;50.080;8.226;2022-12-10T07:41:43;1.40;99.90
13697;DHT22;6920;50.080;8.226;2022-12-10T07:44:13;1.50;99.90
13697;DHT22;6920;50.080;8.226;2022-12-10T07:46:40;1.50;99.90
13697;DHT22;6920;50.080;8.226;2022-12-10T07:49:10;1.40;99.90
13697;DHT22;6920;50.080;8.226;2022-12-10T07:51:46;1.50;99.90
13697;DHT22;6920;50.080;8.226;2022-12-10T07:54:15;1.60;99.90
13697;DHT22;6920;50.080;8.226;2022-12-10T07:56:49;1.60;99.90
13697;DHT22;6920;50.080;8.226;2022-12-10T07:59:19;1.60;99.90
13697;DHT22;6920;50.080;8.226;2022-12-10T08:01:46;1.60;99.90
13697;DHT22;6920;50.080;8.226;2022-12-10T08:04:14;1.50;99.90
13697;DHT22;6920;50.080;8.226;2022-12-10T08:06:41;1.50;99.90
13697;DHT22;6920;50.080;8.226;2022-12-10T08:09:14;1.50;99.90
13697;DHT22;6920;50.080;8.226;2022-12-10T08:11:42;1.50;99.90
13697;DHT22;6920;50.080;8.226;2022-12-10T08:14:10;1.50;99.90
13697;DHT22;6920;50.080;8.226;2022-12-10T08:16:38;1.50;99.90
13697;DHT22;6920;50.080;8.226;2022-12-10T08:19:06;1.50;99.90
13697;DHT22;6920;50.080;8.226;2022-12-10T08:21:34;1.50;99.90
13697;DHT22;6920;50.080;8.226;2022-12-10T08:24:01;1.50;99.90
13697;DHT22;6920;50.080;8.226;2022-12-10T08:26:32;1.50;99.90
13697;DHT22;6920;50.080;8.226;2022-12-10T08:29:02;1.60;99.90
13697;DHT22;6920;50.080;8.226;2022-12-10T08:31:30;1.60;99.90
13697;DHT22;6920;50.080;8.226;2022-12-10T08:33:58;1.60;99.90
13697;DHT22;6920;50.080;8.226;2022-12-10T08:36:25;1.60;99.90
13697;DHT22;6920;50.080;8.226;2022-12-10T08:38:53;1.70;99.90
13697;DHT22;6920;50.080;8.226;2022-12-10T08:41:22;1.70;99.90
13697;DHT22;6920;50.080;8.226;2022-12-10T08:43:52;1.80;99.90
13697;DHT22;6920;50.080;8.226;2022-12-10T08:46:22;1.80;99.90
13697;DHT22;6920;50.080;8.226;2022-12-10T08:48:50;1.80;99.90
13697;DHT22;6920;50.080;8.226;2022-12-10T08:51:19;1.80;99.90
13697;DHT22;6920;50.080;8.226;2022-12-10T08:53:46;1.80;99.90
13697;DHT22;6920;50.080;8.226;2022-12-10T08:56:13;1.90;99.90
13697;DHT22;6920;50.080;8.226;2022-12-10T08:58:41;1.80;99.90
13697;DHT22;6920;50.080;8.226;2022-12-10T09:01:13;1.80;99.90
13697;DHT22;6920;50.080;8.226;2022-12-10T09:03:42;1.80;99.90
13697;DHT22;6920;50.080;8.226;2022-12-10T09:06:14;1.90;99.90
13697;DHT22;6920;50.080;8.226;2022-12-10T09:08:43;1.80;99.90
13697;DHT22;6920;50.080;8.226;2022-12-10T09:11:13;1.70;99.90
13697;DHT22;6920;50.080;8.226;2022-12-10T09:13:41;1.60;99.90
13697;DHT22;6920;50.080;8.226;2022-12-10T09:16:10;1.60;99.90
13697;DHT22;6920;50.080;8.226;2022-12-10T09:18:39;1.70;99.90
13697;DHT22;6920;50.080;8.226;2022-12-10T09:21:09;1.70;99.90
13697;DHT22;6920;50.080;8.226;2022-12-10T09:23:38;1.60;99.90
13697;DHT22;6920;50.080;8.226;2022-12-10T09:26:06;1.60;99.90
13697;DHT22;6920;50.080;8.226;2022-12-10T09:28:35;1.60;99.90
13697;DHT22;6920;50.080;8.226;2022-12-10T09:31:05;1.70;99.90
13697;DHT22;6920;50.080;8.226;2022-12-10T09:33:36;1.70;99.90
13697;DHT22;6920;50.080;8.226;2022-12-10T09:36:06;1.80;99.90
13697;DHT22;6920;50.080;8.226;2022-12-10T09:38:35;1.90;99.90
13697;DHT22;6920;50.080;8.226;2022-12-10T09:41:10;1.90;99.90
13697;DHT22;6920;50.080;8.226;2022-12-10T09:43:44;2.00;99.90
13697;DHT22;6920;50.080;8.226;2022-12-10T09:46:21;2.10;99.90
13697;DHT22;6920;50.080;8.226;2022-12-10T09:49:02;2.10;99.90
13697;DHT22;6920;50.080;8.226;2022-12-10T09:51:35;2.20;99.90
13697;DHT22;6920;50.080;8.226;2022-12-10T09:54:15;2.40;99.90
13697;DHT22;6920;50.080;8.226;2022-12-10T09:56:45;2.40;99.90
13697;DHT22;6920;50.080;8.226;2022-12-10T09:59:17;2.60;99.90
13697;DHT22;6920;50.080;8.226;2022-12-10T10:01:46;2.50;99.90
13697;DHT22;6920;50.080;8.226;2022-12-10T10:04:16;2.50;99.90
13697;DHT22;6920;50.080;8.226;2022-12-10T10:06:43;2.40;99.90
13697;DHT22;6920;50.080;8.226;2022-12-10T10:09:12;2.40;99.90
13697;DHT22;6920;50.080;8.226;2022-12-10T10:11:42;2.40;99.90
13697;DHT22;6920;50.080;8.226;2022-12-10T10:14:15;2.40;99.90
13697;DHT22;6920;50.080;8.226;2022-12-10T10:16:49;2.40;99.90
13697;DHT22;6920;50.080;8.226;2022-12-10T10:19:25;2.40;99.90
13697;DHT22;6920;50.080;8.226;2022-12-10T10:21:54;2.40;99.90
13697;DHT22;6920;50.080;8.226;2022-12-10T10:24:33;2.60;99.90
13697;DHT22;6920;50.080;8.226;2022-12-10T10:27:12;2.80;99.90
13697;DHT22;6920;50.080;8.226;2022-12-10T10:29:40;2.80;99.90
13697;DHT22;6920;50.080;8.226;2022-12-10T10:32:17;2.70;99.90
13697;DHT22;6920;50.080;8.226;2022-12-10T10:34:53;2.70;99.90
13697;DHT22;6920;50.080;8.226;2022-12-10T10:37:26;2.70;99.90
13697;DHT22;6920;50.080;8.226;2022-12-10T10:39:56;3.00;99.90
13697;DHT22;6920;50.080;8.226;2022-12-10T10:42:34;2.70;99.90
13697;DHT22;6920;50.080;8.226;2022-12-10T10:45:05;2.60;99.90
13697;DHT22;6920;50.080;8.226;2022-12-10T10:47:34;2.60;99.90
13697;DHT22;6920;50.080;8.226;2022-12-10T10:50:05;2.70;99.90
13697;DHT22;6920;50.080;8.226;2022-12-10T10:52:37;2.70;99.90
13697;DHT22;6920;50.080;8.226;2022-12-10T10:55:05;2.60;99.90
13697;DHT22;6920;50.080;8.226;2022-12-10T10:57:35;2.70;99.90
13697;DHT22;6920;50.080;8.226;2022-12-10T11:00:07;3.00;99.90
13697;DHT22;6920;50.080;8.226;2022-12-10T11:02:43;2.90;99.90
13697;DHT22;6920;50.080;8.226;2022-12-10T11:05:21;3.00;99.90
13697;DHT22;6920;50.080;8.226;2022-12-10T11:07:56;3.00;99.90
13697;DHT22;6920;50.080;8.226;2022-12-10T11:10:24;3.10;99.90
13697;DHT22;6920;50.080;8.226;2022-12-10T11:12:55;3.10;99.90
13697;DHT22;6920;50.080;8.226;2022-12-10T11:15:32;3.10;99.90
13697;DHT22;6920;50.080;8.226;2022-12-10T11:18:02;3.10;99.90
13697;DHT22;6920;50.080;8.226;2022-12-10T11:20:33;3.10;99.90
13697;DHT22;6920;50.080;8.226;2022-12-10T11:23:08;3.20;99.90
13697;DHT22;6920;50.080;8.226;2022-12-10T11:25:43;3.20;99.90
13697;DHT22;6920;50.080;8.226;2022-12-10T11:28:24;3.30;99.90
13697;DHT22;6920;50.080;8.226;2022-12-10T11:31:12;3.10;99.90
13697;DHT22;6920;50.080;8.226;2022-12-10T11:33:44;3.20;99.90
13697;DHT22;6920;50.080;8.226;2022-12-10T11:36:23;3.20;99.90
13697;DHT22;6920;50.080;8.226;2022-12-10T11:39:02;3.20;99.90
13697;DHT22;6920;50.080;8.226;2022-12-10T11:41:38;3.20;99.90
13697;DHT22;6920;50.080;8.226;2022-12-10T11:44:16;3.30;99.90
13697;DHT22;6920;50.080;8.226;2022-12-10T11:47:05;3.30;99.90
13697;DHT22;6920;50.080;8.226;2022-12-10T11:49:39;3.30;99.90
13697;DHT22;6920;50.080;8.226;2022-12-10T11:52:16;3.30;99.90
13697;DHT22;6920;50.080;8.226;2022-12-10T11:54:58;3.30;99.90
13697;DHT22;6920;50.080;8.226;2022-12-10T11:57:39;3.30;99.90
13697;DHT22;6920;50.080;8.226;2022-12-10T12:00:20;3.30;99.90
13697;DHT22;6920;50.080;8.226;2022-12-10T12:03:00;3.20;99.90
13697;DHT22;6920;50.080;8.226;2022-12-10T12:05:46;3.10;99.90
13697;DHT22;6920;50.080;8.226;2022-12-10T12:08:25;3.10;99.90
13697;DHT22;6920;50.080;8.226;2022-12-10T12:13:53;3.20;99.90
13697;DHT22;6920;50.080;8.226;2022-12-10T12:16:26;3.10;99.90
13697;DHT22;6920;50.080;8.226;2022-12-10T12:18:58;3.20;99.90
13697;DHT22;6920;50.080;8.226;2022-12-10T12:21:26;3.10;99.90
13697;DHT22;6920;50.080;8.226;2022-12-10T12:23:59;3.10;99.90
13697;DHT22;6920;50.080;8.226;2022-12-10T12:26:31;3.20;99.90
13697;DHT22;6920;50.080;8.226;2022-12-10T12:29:05;3.20;99.90
13697;DHT22;6920;50.080;8.226;2022-12-10T12:31:37;3.20;99.90
13697;DHT22;6920;50.080;8.226;2022-12-10T12:34:16;3.30;99.90
13697;DHT22;6920;50.080;8.226;2022-12-10T12:36:45;3.20;99.90
13697;DHT22;6920;50.080;8.226;2022-12-10T12:39:20;3.20;99.90
13697;DHT22;6920;50.080;8.226;2022-12-10T12:41:59;3.20;99.90
13697;DHT22;6920;50.080;8.226;2022-12-10T12:44:39;3.20;99.90
13697;DHT22;6920;50.080;8.226;2022-12-10T12:47:16;3.20;99.90
13697;DHT22;6920;50.080;8.226;2022-12-10T12:49:48;3.20;99.90
13697;DHT22;6920;50.080;8.226;2022-12-10T12:52:28;3.20;99.90
13697;DHT22;6920;50.080;8.226;2022-12-10T12:55:05;3.00;99.90
13697;DHT22;6920;50.080;8.226;2022-12-10T12:57:43;3.00;99.90
13697;DHT22;6920;50.080;8.226;2022-12-10T13:00:14;3.00;99.90
13697;DHT22;6920;50.080;8.226;2022-12-10T13:02:53;2.90;99.90
13697;DHT22;6920;50.080;8.226;2022-12-10T13:05:24;2.80;99.90
13697;DHT22;6920;50.080;8.226;2022-12-10T13:11:17;2.90;99.90
13697;DHT22;6920;50.080;8.226;2022-12-10T13:14:29;2.90;99.90
13697;DHT22;6920;50.080;8.226;2022-12-10T13:17:26;2.70;99.90
13697;DHT22;6920;50.080;8.226;2022-12-10T13:19:53;2.60;99.90
13697;DHT22;6920;50.080;8.226;2022-12-10T13:22:44;2.50;99.90
13697;DHT22;6920;50.080;8.226;2022-12-10T13:28:31;2.70;99.90
13697;DHT22;6920;50.080;8.226;2022-12-10T13:31:17;2.80;99.90
13697;DHT22;6920;50.080;8.226;2022-12-10T13:33:51;2.90;99.90
13697;DHT22;6920;50.080;8.226;2022-12-10T13:36:33;2.90;99.90
13697;DHT22;6920;50.080;8.226;2022-12-10T13:39:20;2.80;99.90
13697;DHT22;6920;50.080;8.226;2022-12-10T13:44:39;2.80;99.90
13697;DHT22;6920;50.080;8.226;2022-12-10T13:47:31;2.80;99.90
13697;DHT22;6920;50.080;8.226;2022-12-10T13:50:00;2.80;99.90
13697;DHT22;6920;50.080;8.226;2022-12-10T13:52:32;2.80;99.90
13697;DHT22;6920;50.080;8.226;2022-12-10T13:55:20;2.80;99.90
13697;DHT22;6920;50.080;8.226;2022-12-10T13:58:09;2.80;99.90
13697;DHT22;6920;50.080;8.226;2022-12-10T14:00:49;2.70;99.90
13697;DHT22;6920;50.080;8.226;2022-12-10T14:06:27;2.60;99.90
13697;DHT22;6920;50.080;8.226;2022-12-10T14:09:09;2.30;99.90
13697;DHT22;6920;50.080;8.226;2022-12-10T14:11:47;2.30;99.90
13697;DHT22;6920;50.080;8.226;2022-12-10T14:14:22;2.20;99.90
13697;DHT22;6920;50.080;8.226;2022-12-10T14:16:53;2.20;99.90
13697;DHT22;6920;50.080;8.226;2022-12-10T14:19:25;2.20;99.90
13697;DHT22;6920;50.080;8.226;2022-12-10T14:21:55;2.20;99.90
13697;DHT22;6920;50.080;8.226;2022-12-10T14:24:31;2.30;99.90
13697;DHT22;6920;50.080;8.226;2022-12-10T14:27:02;2.40;99.90
13697;DHT22;6920;50.080;8.226;2022-12-10T14:29:30;2.50;99.90
13697;DHT22;6920;50.080;8.226;2022-12-10T14:32:04;2.60;99.90
13697;DHT22;6920;50.080;8.226;2022-12-10T14:34:33;2.50;99.90
13697;DHT22;6920;50.080;8.226;2022-12-10T14:37:03;2.50;99.90
13697;DHT22;6920;50.080;8.226;2022-12-10T14:39:32;2.40;99.90
13697;DHT22;6920;50.080;8.226;2022-12-10T14:42:03;2.30;99.90
13697;DHT22;6920;50.080;8.226;2022-12-10T14:44:31;2.40;99.90
13697;DHT22;6920;50.080;8.226;2022-12-10T14:47:13;2.30;99.90
13697;DHT22;6920;50.080;8.226;2022-12-10T14:49:42;2.30;99.90
13697;DHT22;6920;50.080;8.226;2022-12-10T14:52:13;2.20;99.90
13697;DHT22;6920;50.080;8.226;2022-12-10T14:54:41;2.10;99.90
13697;DHT22;6920;50.080;8.226;2022-12-10T14:57:16;2.10;99.90
13697;DHT22;6920;50.080;8.226;2022-12-10T14:59:48;2.00;99.90
13697;DHT22;6920;50.080;8.226;2022-12-10T15:02:27;2.00;99.90
13697;DHT22;6920;50.080;8.226;2022-12-10T15:04:57;2.00;99.90
13697;DHT22;6920;50.080;8.226;2022-12-10T15:07:26;1.90;99.90
13697;DHT22;6920;50.080;8.226;2022-12-10T15:09:54;2.00;99.90
13697;DHT22;6920;50.080;8.226;2022-12-10T15:12:30;2.00;99.90
13697;DHT22;6920;50.080;8.226;2022-12-10T15:15:04;1.90;99.90
13697;DHT22;6920;50.080;8.226;2022-12-10T15:17:43;1.80;99.90
13697;DHT22;6920;50.080;8.226;2022-12-10T15:20:23;1.70;99.90
13697;DHT22;6920;50.080;8.226;2022-12-10T15:22:52;1.70;99.90
13697;DHT22;6920;50.080;8.226;2022-12-10T15:25:23;1.70;99.90
13697;DHT22;6920;50.080;8.226;2022-12-10T15:27:54;1.70;99.90
13697;DHT22;6920;50.080;8.226;2022-12-10T15:30:39;1.70;99.90
13697;DHT22;6920;50.080;8.226;2022-12-10T15:33:26;1.70;99.90
13697;DHT22;6920;50.080;8.226;2022-12-10T15:35:59;1.70;99.90
13697;DHT22;6920;50.080;8.226;2022-12-10T15:38:29;1.60;99.90
13697;DHT22;6920;50.080;8.226;2022-12-10T15:41:22;1.60;99.90
13697;DHT22;6920;50.080;8.226;2022-12-10T15:44:00;1.70;99.90
13697;DHT22;6920;50.080;8.226;2022-12-10T15:46:28;1.50;99.90
13697;DHT22;6920;50.080;8.226;2022-12-10T15:48:56;1.50;99.90
13697;DHT22;6920;50.080;8.226;2022-12-10T15:51:24;1.40;99.90
13697;DHT22;6920;50.080;8.226;2022-12-10T15:53:51;1.40;99.90
13697;DHT22;6920;50.080;8.226;2022-12-10T15:56:19;1.30;99.90
13697;DHT22;6920;50.080;8.226;2022-12-10T15:58:48;1.30;99.90
13697;DHT22;6920;50.080;8.226;2022-12-10T16:01:15;1.20;99.90
13697;DHT22;6920;50.080;8.226;2022-12-10T16:03:43;1.20;99.90
13697;DHT22;6920;50.080;8.226;2022-12-10T16:06:14;1.20;99.90
13697;DHT22;6920;50.080;8.226;2022-12-10T16:08:41;1.10;99.90
13697;DHT22;6920;50.080;8.226;2022-12-10T16:11:15;1.10;99.90
13697;DHT22;6920;50.080;8.226;2022-12-10T16:13:49;1.00;99.90
13697;DHT22;6920;50.080;8.226;2022-12-10T16:16:19;0.80;99.90
13697;DHT22;6920;50.080;8.226;2022-12-10T16:18:47;0.90;99.90
13697;DHT22;6920;50.080;8.226;2022-12-10T16:21:17;0.90;99.90
13697;DHT22;6920;50.080;8.226;2022-12-10T16:23:44;0.90;99.90
13697;DHT22;6920;50.080;8.226;2022-12-10T16:26:14;1.00;99.90
13697;DHT22;6920;50.080;8.226;2022-12-10T16:28:42;0.90;99.90
13697;DHT22;6920;50.080;8.226;2022-12-10T16:31:12;0.80;99.90
13697;DHT22;6920;50.080;8.226;2022-12-10T16:33:42;0.90;99.90
13697;DHT22;6920;50.080;8.226;2022-12-10T16:36:10;0.80;99.90
13697;DHT22;6920;50.080;8.226;2022-12-10T16:38:42;0.80;99.90
13697;DHT22;6920;50.080;8.226;2022-12-10T16:41:17;0.80;99.90
13697;DHT22;6920;50.080;8.226;2022-12-10T16:43:45;0.80;99.90
13697;DHT22;6920;50.080;8.226;2022-12-10T16:48:41;0.80;99.90
13697;DHT22;6920;50.080;8.226;2022-12-10T16:51:16;0.70;99.90
13697;DHT22;6920;50.080;8.226;2022-12-10T16:53:49;0.80;99.90
13697;DHT22;6920;50.080;8.226;2022-12-10T16:58:46;0.60;99.90
13697;DHT22;6920;50.080;8.226;2022-12-10T17:01:20;0.60;99.90
13697;DHT22;6920;50.080;8.226;2022-12-10T17:03:50;0.70;99.90
13697;DHT22;6920;50.080;8.226;2022-12-10T17:06:21;0.60;99.90
13697;DHT22;6920;50.080;8.226;2022-12-10T17:08:59;0.50;99.90
13697;DHT22;6920;50.080;8.226;2022-12-10T17:11:35;0.60;99.90
13697;DHT22;6920;50.080;8.226;2022-12-10T17:14:23;0.60;99.90